Time;durP1;ratioP1;P1;durP2;ratioP2;P2;SDS_P1;SDS_P2;PMS_P1;PMS_P2;Temp;Humidity;BMP_temperature;BMP_pressure;BME280_temperature;BME280_humidity;BME280_pressure;Samples;Min_cycle;Max_cycle;Signal;HPM_P1;HPM_P2
2023/03/20 00:00:38;;;;;;;26.00;16.37;;;;;;;;;;5016667;28;20177;-77
2023/03/20 00:03:04;;;;;;;24.40;15.80;;;;;;;;;;5016691;28;20187;-77
2023/03/20 00:05:32;;;;;;;28.20;16.43;;;;;;;;;;5016609;28;20199;-77
2023/03/20 00:07:58;;;;;;;23.27;16.80;;;;;;;;;;5033321;28;20177;-77
2023/03/20 00:10:38;;;;;;;28.43;16.80;;;;;;;;;;5016477;28;20184;-77
2023/03/20 00:13:05;;;;;;;23.87;15.80;;;;;;;;;;5016780;28;20227;-78
2023/03/20 00:15:36;;;;;;;21.87;15.20;;;;;;;;;;5016528;28;20173;-77
2023/03/20 00:18:02;;;;;;;20.07;13.97;;;;;;;;;;5016485;28;20184;-78
2023/03/20 00:20:28;;;;;;;21.50;14.57;;;;;;;;;;5034307;28;20303;-78
2023/03/20 00:22:54;;;;;;;21.20;15.40;;;;;;;;;;5000461;28;20185;-78
2023/03/20 00:25:23;;;;;;;23.07;15.37;;;;;;;;;;5019553;28;20188;-78
2023/03/20 00:27:49;;;;;;;24.60;14.57;;;;;;;;;;5016401;28;20193;-78
2023/03/20 00:30:29;;;;;;;19.60;14.33;;;;;;;;;;5005625;28;20201;-77
2023/03/20 00:32:56;;;;;;;21.63;14.07;;;;;;;;;;5022961;28;20207;-77
2023/03/20 00:35:27;;;;;;;21.83;14.07;;;;;;;;;;5030184;28;20173;-77
2023/03/20 00:37:53;;;;;;;20.17;14.17;;;;;;;;;;5019863;28;20173;-77
2023/03/20 00:40:20;;;;;;;20.02;14.90;;;;;;;;;;5003564;28;20410;-77
2023/03/20 00:42:49;;;;;;;18.73;14.23;;;;;;;;;;5019753;28;20211;-78
2023/03/20 00:45:17;;;;;;;23.97;15.90;;;;;;;;;;5019809;28;20173;-77
2023/03/20 00:47:44;;;;;;;20.77;14.50;;;;;;;;;;5020120;28;20180;-82
2023/03/20 00:50:30;;;;;;;20.03;14.20;;;;;;;;;;5020876;28;20179;-82
2023/03/20 00:52:57;;;;;;;19.23;15.88;;;;;;;;;;5004912;28;20442;-82
2023/03/20 00:55:25;;;;;;;19.83;14.43;;;;;;;;;;5007456;28;20181;-81
2023/03/20 00:57:55;;;;;;;19.50;14.30;;;;;;;;;;5020702;28;20176;-82
2023/03/20 01:00:34;;;;;;;20.23;14.30;;;;;;;;;;5037797;28;20173;-81
2023/03/20 01:03:01;;;;;;;23.60;15.23;;;;;;;;;;5037020;28;20180;-81
2023/03/20 01:05:27;;;;;;;20.60;15.53;;;;;;;;;;5020096;28;20184;-82
2023/03/20 01:07:54;;;;;;;21.23;17.67;;;;;;;;;;5035271;28;20413;-81
2023/03/20 01:10:20;;;;;;;22.93;15.27;;;;;;;;;;5037382;28;20173;-81
2023/03/20 01:12:46;;;;;;;23.50;16.90;;;;;;;;;;5002408;28;20209;-81
2023/03/20 01:15:25;;;;;;;19.93;16.53;;;;;;;;;;5019799;28;20172;-81
2023/03/20 01:17:51;;;;;;;24.60;19.92;;;;;;;;;;5018845;28;20417;-81
2023/03/20 01:20:27;;;;;;;23.47;18.23;;;;;;;;;;5017375;28;20224;-84
2023/03/20 01:22:53;;;;;;;23.37;17.97;;;;;;;;;;5031422;28;20240;-83
2023/03/20 01:25:20;;;;;;;22.60;17.43;;;;;;;;;;4999956;28;20177;-83
2023/03/20 01:27:49;;;;;;;26.63;18.37;;;;;;;;;;5016289;28;20205;-83
2023/03/20 01:30:16;;;;;;;25.57;18.27;;;;;;;;;;5017324;28;20197;-83
2023/03/20 01:32:45;;;;;;;24.93;19.50;;;;;;;;;;5016198;28;20224;-82
2023/03/20 01:35:15;;;;;;;22.37;18.90;;;;;;;;;;4999389;28;20181;-83
2023/03/20 01:37:41;;;;;;;29.20;20.43;;;;;;;;;;5021895;28;20251;-76
2023/03/20 01:40:22;;;;;;;28.17;24.38;;;;;;;;;;5018190;28;20421;-76
2023/03/20 01:42:48;;;;;;;27.07;19.90;;;;;;;;;;5018837;28;20181;-77
2023/03/20 01:45:16;;;;;;;24.70;18.50;;;;;;;;;;5036727;28;20180;-76
2023/03/20 01:47:42;;;;;;;24.52;18.73;;;;;;;;;;5036794;28;20409;-76
2023/03/20 01:50:15;;;;;;;25.02;19.15;;;;;;;;;;5018686;28;20425;-76
2023/03/20 01:52:41;;;;;;;26.30;17.47;;;;;;;;;;5034531;28;20257;-77
2023/03/20 01:55:07;;;;;;;22.50;16.70;;;;;;;;;;5038837;28;20176;-78
2023/03/20 01:57:33;;;;;;;20.83;14.47;;;;;;;;;;5022525;28;20187;-78
2023/03/20 02:00:18;;;;;;;25.67;15.80;;;;;;;;;;5022141;28;20180;-78
2023/03/20 02:02:46;;;;;;;21.27;14.60;;;;;;;;;;5021471;28;20188;-78
2023/03/20 02:05:13;;;;;;;22.30;16.03;;;;;;;;;;5036568;28;20259;-78
2023/03/20 02:07:39;;;;;;;20.57;15.10;;;;;;;;;;5018846;28;20203;-78
2023/03/20 02:10:10;;;;;;;26.07;15.27;;;;;;;;;;5002637;28;20185;-76
2023/03/20 02:12:37;;;;;;;24.93;15.10;;;;;;;;;;5035949;28;20244;-76
2023/03/20 02:15:04;;;;;;;23.23;14.93;;;;;;;;;;5036357;28;20173;-76
2023/03/20 02:17:30;;;;;;;23.33;14.13;;;;;;;;;;5018834;28;20263;-76
2023/03/20 02:19:56;;;;;;;18.00;12.97;;;;;;;;;;5035116;28;20225;-76
2023/03/20 02:22:22;;;;;;;23.53;13.87;;;;;;;;;;5018645;28;20235;-76
2023/03/20 02:24:48;;;;;;;22.40;13.77;;;;;;;;;;5018566;28;20231;-76
2023/03/20 02:27:17;;;;;;;20.40;12.83;;;;;;;;;;5018380;28;20173;-77
2023/03/20 02:30:12;;;;;;;21.25;14.82;;;;;;;;;;5035205;28;20504;-77
2023/03/20 02:32:52;;;;;;;18.37;12.03;;;;;;;;;;4995270;28;20222;-77
2023/03/20 02:35:45;;;;;;;17.73;11.27;;;;;;;;;;5038054;28;20206;-78
2023/03/20 02:38:26;;;;;;;16.83;10.83;;;;;;;;;;5049523;28;20200;-77
2023/03/20 02:40:52;;;;;;;17.47;9.63;;;;;;;;;;5031245;28;20318;-78
2023/03/20 02:43:30;;;;;;;15.73;9.77;;;;;;;;;;4999761;28;20197;-77
2023/03/20 02:46:11;;;;;;;12.70;7.97;;;;;;;;;;5014681;28;20239;-77
2023/03/20 02:48:53;;;;;;;12.27;7.23;;;;;;;;;;5015627;28;20177;-77
2023/03/20 02:51:28;;;;;;;8.10;6.10;;;;;;;;;;5017737;28;20177;-77
2023/03/20 02:54:00;;;;;;;9.50;6.83;;;;;;;;;;5017706;28;20302;-77
2023/03/20 02:56:26;;;;;;;6.63;5.10;;;;;;;;;;5017947;28;20181;-77
2023/03/20 02:58:59;;;;;;;8.63;5.37;;;;;;;;;;5017717;28;20203;-77
2023/03/20 03:01:28;;;;;;;6.60;5.15;;;;;;;;;;5016439;28;20555;-77
2023/03/20 03:03:56;;;;;;;6.65;4.63;;;;;;;;;;5031936;28;20421;-76
2023/03/20 03:06:22;;;;;;;7.23;4.43;;;;;;;;;;5019625;28;20230;-77
2023/03/20 03:08:54;;;;;;;7.28;4.75;;;;;;;;;;5016581;28;20433;-77
2023/03/20 03:11:20;;;;;;;6.57;4.60;;;;;;;;;;5017105;28;20413;-77
2023/03/20 03:13:50;;;;;;;7.40;4.50;;;;;;;;;;5017722;28;20460;-76
2023/03/20 03:16:19;;;;;;;7.57;4.20;;;;;;;;;;5035187;28;20175;-84
2023/03/20 03:18:46;;;;;;;5.40;4.13;;;;;;;;;;5017570;28;20217;-84
2023/03/20 03:21:14;;;;;;;8.75;5.30;;;;;;;;;;5003352;28;20419;-83
2023/03/20 03:23:41;;;;;;;9.17;5.50;;;;;;;;;;4997713;28;20181;-84
2023/03/20 03:26:12;;;;;;;8.63;5.97;;;;;;;;;;4997814;28;20414;-84
2023/03/20 03:28:47;;;;;;;10.18;6.55;;;;;;;;;;5014290;28;20427;-84
2023/03/20 03:31:16;;;;;;;9.80;5.90;;;;;;;;;;4997553;28;20172;-84
2023/03/20 03:33:44;;;;;;;10.38;6.68;;;;;;;;;;5016324;28;20465;-78
2023/03/20 03:36:11;;;;;;;10.00;7.00;;;;;;;;;;5016801;28;20434;-78
2023/03/20 03:38:52;;;;;;;10.03;6.43;;;;;;;;;;5017175;28;20181;-77
2023/03/20 03:41:27;;;;;;;11.43;6.90;;;;;;;;;;5017451;28;20184;-77
2023/03/20 03:44:04;;;;;;;10.57;7.07;;;;;;;;;;5013633;28;20184;-78
2023/03/20 03:46:32;;;;;;;10.70;7.37;;;;;;;;;;4997442;28;20204;-77
2023/03/20 03:48:59;;;;;;;12.38;9.35;;;;;;;;;;4996269;28;20426;-77
2023/03/20 03:51:28;;;;;;;14.30;9.77;;;;;;;;;;4996920;28;20422;-83
2023/03/20 03:53:58;;;;;;;13.37;8.73;;;;;;;;;;4997184;28;20205;-83
2023/03/20 03:56:26;;;;;;;17.08;8.80;;;;;;;;;;4997077;28;20415;-83
2023/03/20 03:58:53;;;;;;;13.23;8.13;;;;;;;;;;5014424;28;20169;-84
2023/03/20 04:01:20;;;;;;;14.75;9.77;;;;;;;;;;5027591;28;20470;-84
2023/03/20 04:03:48;;;;;;;13.88;9.20;;;;;;;;;;5016511;28;20504;-84
2023/03/20 04:06:15;;;;;;;15.65;9.68;;;;;;;;;;5015978;28;20409;-81
2023/03/20 04:08:41;;;;;;;13.82;9.65;;;;;;;;;;5016120;28;20484;-81
2023/03/20 04:11:08;;;;;;;13.05;9.80;;;;;;;;;;5015806;28;20397;-81
2023/03/20 04:13:34;;;;;;;15.50;10.00;;;;;;;;;;5033637;28;20532;-81
2023/03/20 04:16:00;;;;;;;14.57;9.70;;;;;;;;;;5016168;28;20456;-81
2023/03/20 04:18:27;;;;;;;16.30;10.67;;;;;;;;;;5015913;28;20418;-81
2023/03/20 04:20:53;;;;;;;16.70;10.55;;;;;;;;;;5015878;28;20430;-81
2023/03/20 04:23:19;;;;;;;18.80;11.90;;;;;;;;;;4996374;28;20439;-81
2023/03/20 04:25:45;;;;;;;20.58;13.20;;;;;;;;;;5014216;28;20429;-81
2023/03/20 04:28:15;;;;;;;20.80;12.33;;;;;;;;;;4997005;28;20185;-81
2023/03/20 04:30:43;;;;;;;19.42;14.32;;;;;;;;;;4997064;28;20419;-81
2023/03/20 04:33:09;;;;;;;19.88;14.55;;;;;;;;;;5021974;28;20439;-81
2023/03/20 04:35:35;;;;;;;22.45;15.95;;;;;;;;;;5015202;28;20425;-81
2023/03/20 04:38:02;;;;;;;25.53;17.80;;;;;;;;;;5015796;28;20437;-81
2023/03/20 04:40:30;;;;;;;27.02;18.70;;;;;;;;;;5015520;28;20417;-77
2023/03/20 04:42:56;;;;;;;26.67;17.10;;;;;;;;;;5016647;28;20186;-76
2023/03/20 04:45:22;;;;;;;25.30;16.47;;;;;;;;;;5016116;28;20173;-76
2023/03/20 04:47:48;;;;;;;30.27;20.42;;;;;;;;;;4999301;28;20417;-77
2023/03/20 04:50:14;;;;;;;28.65;21.05;;;;;;;;;;4998944;28;20508;-77
2023/03/20 04:52:40;;;;;;;29.10;21.38;;;;;;;;;;5014853;28;20435;-76
2023/03/20 04:55:06;;;;;;;28.93;21.10;;;;;;;;;;5011229;28;20522;-77
2023/03/20 04:57:33;;;;;;;29.38;21.30;;;;;;;;;;5034858;28;20419;-77
2023/03/20 04:59:59;;;;;;;28.30;21.20;;;;;;;;;;5035533;28;20404;-77
2023/03/20 05:02:26;;;;;;;29.45;21.10;;;;;;;;;;5006344;28;20513;-77
2023/03/20 05:05:12;;;;;;;29.42;21.80;;;;;;;;;;5029529;28;20447;-84
2023/03/20 05:07:38;;;;;;;31.20;21.65;;;;;;;;;;5031689;28;20417;-83
2023/03/20 05:10:05;;;;;;;28.60;21.40;;;;;;;;;;5016538;28;20424;-83
2023/03/20 05:12:31;;;;;;;29.75;21.00;;;;;;;;;;4993234;28;20434;-83
2023/03/20 05:14:57;;;;;;;28.23;20.88;;;;;;;;;;5019057;28;20432;-77
2023/03/20 05:17:23;;;;;;;26.80;20.52;;;;;;;;;;5018954;28;20398;-76
2023/03/20 05:19:49;;;;;;;27.20;20.80;;;;;;;;;;5035739;28;20463;-76
2023/03/20 05:22:16;;;;;;;25.90;19.83;;;;;;;;;;5011701;28;20427;-76
2023/03/20 05:24:42;;;;;;;27.00;20.15;;;;;;;;;;5017397;28;20422;-77
2023/03/20 05:27:08;;;;;;;29.05;20.02;;;;;;;;;;5018745;28;20421;-77
2023/03/20 05:29:34;;;;;;;24.27;18.30;;;;;;;;;;5019408;28;20409;-76
2023/03/20 05:32:00;;;;;;;26.03;16.97;;;;;;;;;;5031117;28;20516;-77
2023/03/20 05:34:26;;;;;;;24.88;17.48;;;;;;;;;;5014944;28;20436;-76
2023/03/20 05:36:53;;;;;;;20.75;15.65;;;;;;;;;;5018832;28;20434;-76
2023/03/20 05:39:19;;;;;;;19.35;14.93;;;;;;;;;;5035333;28;20495;-76
2023/03/20 05:41:45;;;;;;;22.08;15.77;;;;;;;;;;5018101;28;20448;-77
2023/03/20 05:44:11;;;;;;;21.73;14.50;;;;;;;;;;5034354;28;20441;-77
2023/03/20 05:46:37;;;;;;;21.60;14.85;;;;;;;;;;5034904;28;20464;-82
2023/03/20 05:49:03;;;;;;;21.52;14.52;;;;;;;;;;5034671;28;20480;-82
2023/03/20 05:51:29;;;;;;;20.63;14.10;;;;;;;;;;5017934;28;20413;-82
2023/03/20 05:53:55;;;;;;;19.08;13.50;;;;;;;;;;5034714;28;20464;-82
2023/03/20 05:56:22;;;;;;;19.83;13.77;;;;;;;;;;5017138;28;20501;-82
2023/03/20 05:58:48;;;;;;;21.23;14.30;;;;;;;;;;5017898;28;20417;-82
2023/03/20 06:01:17;;;;;;;21.17;14.10;;;;;;;;;;5017603;28;20401;-81
2023/03/20 06:03:43;;;;;;;19.23;13.63;;;;;;;;;;5019980;28;20436;-78
2023/03/20 06:06:09;;;;;;;17.30;13.35;;;;;;;;;;5035867;28;20412;-78
2023/03/20 06:08:35;;;;;;;19.33;13.43;;;;;;;;;;5017181;28;20464;-78
2023/03/20 06:11:02;;;;;;;22.92;14.15;;;;;;;;;;5017856;28;20410;-78
2023/03/20 06:13:29;;;;;;;18.65;13.82;;;;;;;;;;5038454;28;20433;-78
2023/03/20 06:15:55;;;;;;;20.33;13.88;;;;;;;;;;5037655;28;20479;-78
2023/03/20 06:18:21;;;;;;;19.48;13.85;;;;;;;;;;5021186;28;20469;-78
2023/03/20 06:20:51;;;;;;;18.67;13.33;;;;;;;;;;5020216;28;20531;-77
2023/03/20 06:23:17;;;;;;;18.88;13.48;;;;;;;;;;5035251;28;20442;-77
2023/03/20 06:25:43;;;;;;;21.13;13.98;;;;;;;;;;5018274;28;20430;-77
2023/03/20 06:28:09;;;;;;;17.50;13.05;;;;;;;;;;5010802;28;20412;-77
2023/03/20 06:30:36;;;;;;;21.50;13.90;;;;;;;;;;5012059;28;20473;-77
2023/03/20 06:33:02;;;;;;;18.17;14.07;;;;;;;;;;5009301;28;20493;-77
2023/03/20 06:35:30;;;;;;;18.48;14.00;;;;;;;;;;5035800;28;20404;-77
2023/03/20 06:37:56;;;;;;;18.90;13.38;;;;;;;;;;5046638;28;20417;-82
2023/03/20 06:40:22;;;;;;;22.40;13.90;;;;;;;;;;5036850;28;20408;-82
2023/03/20 06:42:48;;;;;;;18.52;13.77;;;;;;;;;;5020452;28;20431;-82
2023/03/20 06:45:15;;;;;;;21.25;13.90;;;;;;;;;;5036699;28;20423;-81
2023/03/20 06:47:41;;;;;;;19.15;13.90;;;;;;;;;;5054209;28;20391;-81
2023/03/20 06:50:07;;;;;;;18.45;13.57;;;;;;;;;;5020142;28;20491;-81
2023/03/20 06:52:34;;;;;;;18.63;13.50;;;;;;;;;;5053967;28;20403;-78
2023/03/20 06:55:00;;;;;;;17.98;13.35;;;;;;;;;;5036280;28;20408;-78
2023/03/20 06:57:26;;;;;;;19.80;13.73;;;;;;;;;;5036690;28;20396;-78
2023/03/20 06:59:52;;;;;;;18.40;13.50;;;;;;;;;;5036582;28;20430;-78
2023/03/20 07:02:19;;;;;;;20.13;13.47;;;;;;;;;;5019679;28;20463;-78
2023/03/20 07:04:45;;;;;;;18.08;12.70;;;;;;;;;;5036242;28;20439;-78
2023/03/20 07:07:11;;;;;;;21.00;13.45;;;;;;;;;;5036409;28;20408;-78
2023/03/20 07:09:38;;;;;;;16.60;13.40;;;;;;;;;;5020056;28;20414;-78
2023/03/20 07:12:04;;;;;;;20.40;13.40;;;;;;;;;;5020184;28;20404;-77
2023/03/20 07:14:30;;;;;;;20.15;13.73;;;;;;;;;;5019884;28;20435;-77
2023/03/20 07:16:56;;;;;;;18.92;13.32;;;;;;;;;;5053707;28;20393;-77
2023/03/20 07:19:23;;;;;;;21.15;14.10;;;;;;;;;;5019698;28;20396;-77
2023/03/20 07:21:49;;;;;;;18.77;13.18;;;;;;;;;;5019551;28;20499;-78
2023/03/20 07:24:15;;;;;;;17.55;13.23;;;;;;;;;;5036158;28;20485;-77
2023/03/20 07:26:41;;;;;;;17.42;13.15;;;;;;;;;;5020118;28;20424;-82
2023/03/20 07:29:07;;;;;;;19.75;13.07;;;;;;;;;;5019393;28;20496;-82
2023/03/20 07:31:33;;;;;;;20.00;13.30;;;;;;;;;;5035682;28;20431;-82
2023/03/20 07:33:59;;;;;;;17.63;12.93;;;;;;;;;;5018766;28;20431;-82
2023/03/20 07:36:25;;;;;;;20.25;12.80;;;;;;;;;;5019506;28;20400;-81
2023/03/20 07:38:51;;;;;;;17.50;12.73;;;;;;;;;;5019356;28;20462;-82
2023/03/20 07:41:17;;;;;;;20.38;12.35;;;;;;;;;;5019506;28;20491;-81
2023/03/20 07:43:43;;;;;;;19.92;12.73;;;;;;;;;;5032817;28;20440;-78
2023/03/20 07:46:09;;;;;;;19.77;12.68;;;;;;;;;;5026645;28;20489;-78
2023/03/20 07:48:35;;;;;;;18.47;10.70;;;;;;;;;;5016985;28;20204;-78
2023/03/20 07:51:01;;;;;;;17.07;10.37;;;;;;;;;;5020001;28;20207;-78
2023/03/20 07:53:28;;;;;;;16.07;10.43;;;;;;;;;;5019818;28;20302;-78
2023/03/20 07:55:54;;;;;;;16.80;10.40;;;;;;;;;;5036285;28;20172;-78
2023/03/20 07:58:20;;;;;;;17.08;11.75;;;;;;;;;;5035923;28;20484;-78
2023/03/20 08:00:46;;;;;;;18.45;11.63;;;;;;;;;;5019221;28;20419;-84
2023/03/20 08:03:12;;;;;;;16.58;11.30;;;;;;;;;;5031963;28;20405;-84
2023/03/20 08:05:39;;;;;;;19.13;11.00;;;;;;;;;;5019017;28;20445;-84
2023/03/20 08:08:05;;;;;;;17.33;11.45;;;;;;;;;;5011189;28;20469;-84
2023/03/20 08:10:31;;;;;;;19.92;11.20;;;;;;;;;;5024331;28;20405;-84
2023/03/20 08:12:57;;;;;;;17.30;11.52;;;;;;;;;;5010599;28;20431;-85
2023/03/20 08:15:23;;;;;;;17.98;11.45;;;;;;;;;;5035357;28;20414;-84
2023/03/20 08:17:49;;;;;;;17.23;10.93;;;;;;;;;;5035623;28;20419;-81
2023/03/20 08:20:16;;;;;;;16.10;11.15;;;;;;;;;;5035427;28;20404;-81
2023/03/20 08:22:43;;;;;;;17.67;11.00;;;;;;;;;;5053150;28;20403;-82
2023/03/20 08:25:10;;;;;;;18.40;10.82;;;;;;;;;;5035219;28;20407;-81
2023/03/20 08:27:37;;;;;;;17.30;11.10;;;;;;;;;;5035557;28;20988;-81
2023/03/20 08:30:03;;;;;;;15.25;10.73;;;;;;;;;;5035470;28;20408;-81
2023/03/20 08:32:29;;;;;;;17.48;10.63;;;;;;;;;;5035621;28;20397;-81
2023/03/20 08:34:55;;;;;;;17.20;11.00;;;;;;;;;;5035162;28;20411;-78
2023/03/20 08:37:22;;;;;;;15.90;10.32;;;;;;;;;;5034010;28;20415;-78
2023/03/20 08:39:48;;;;;;;17.67;10.17;;;;;;;;;;5018949;28;20502;-78
2023/03/20 08:42:14;;;;;;;18.10;10.30;;;;;;;;;;5052889;28;20462;-78
2023/03/20 08:44:41;;;;;;;17.10;10.10;;;;;;;;;;5035638;28;20404;-78
2023/03/20 08:47:09;;;;;;;15.48;9.95;;;;;;;;;;5039548;28;20403;-78
2023/03/20 08:49:35;;;;;;;16.77;10.20;;;;;;;;;;5025569;28;20412;-78
2023/03/20 08:52:01;;;;;;;17.67;9.98;;;;;;;;;;5036228;28;20442;-78
2023/03/20 08:54:27;;;;;;;15.82;10.00;;;;;;;;;;5037289;28;20419;-78
2023/03/20 08:56:53;;;;;;;17.10;9.60;;;;;;;;;;5026645;28;20406;-78
2023/03/20 08:59:20;;;;;;;15.88;9.48;;;;;;;;;;5020850;28;20503;-78
2023/03/20 09:01:46;;;;;;;13.27;9.13;;;;;;;;;;5013896;28;20404;-78
2023/03/20 09:04:12;;;;;;;14.75;9.70;;;;;;;;;;5028858;28;20428;-79
2023/03/20 09:06:39;;;;;;;17.27;9.75;;;;;;;;;;5035792;28;20410;-81
2023/03/20 09:09:06;;;;;;;15.07;9.48;;;;;;;;;;5051402;28;20441;-81
2023/03/20 09:11:33;;;;;;;15.70;9.48;;;;;;;;;;5025588;28;20413;-81
2023/03/20 09:13:59;;;;;;;16.08;8.70;;;;;;;;;;5018907;28;20522;-81
2023/03/20 09:16:25;;;;;;;14.18;8.70;;;;;;;;;;5033411;28;20411;-81
2023/03/20 09:18:51;;;;;;;15.73;9.07;;;;;;;;;;5038746;28;20400;-82
2023/03/20 09:21:17;;;;;;;16.75;9.25;;;;;;;;;;5008392;28;20462;-81
2023/03/20 09:23:44;;;;;;;17.10;8.68;;;;;;;;;;5018651;28;20413;-84
2023/03/20 09:26:10;;;;;;;14.77;8.98;;;;;;;;;;5019230;28;20496;-85
2023/03/20 09:28:36;;;;;;;13.88;8.80;;;;;;;;;;5010677;28;20415;-84
2023/03/20 09:31:02;;;;;;;15.40;8.85;;;;;;;;;;5022276;28;20502;-85
2023/03/20 09:33:28;;;;;;;15.40;8.40;;;;;;;;;;5038459;28;20522;-85
2023/03/20 09:35:54;;;;;;;14.88;7.70;;;;;;;;;;5038326;28;20415;-84
2023/03/20 09:38:21;;;;;;;13.73;7.53;;;;;;;;;;5018605;28;20406;-85
2023/03/20 09:40:55;;;;;;;16.27;7.15;;;;;;;;;;5030630;28;20411;-77
2023/03/20 09:43:40;;;;;;;11.35;6.90;;;;;;;;;;5056025;28;20430;-78
2023/03/20 09:46:18;;;;;;;12.98;6.90;;;;;;;;;;5038041;28;20399;-78
2023/03/20 09:48:44;;;;;;;12.07;7.10;;;;;;;;;;5038061;28;20400;-78
2023/03/20 09:51:28;;;;;;;15.47;7.07;;;;;;;;;;5038195;28;20404;-78
2023/03/20 09:54:04;;;;;;;11.45;6.57;;;;;;;;;;5031457;28;20504;-78
2023/03/20 09:56:30;;;;;;;10.67;6.20;;;;;;;;;;5036800;28;20172;-85
2023/03/20 09:59:01;;;;;;;10.13;5.80;;;;;;;;;;5031480;28;20173;-85
2023/03/20 10:01:30;;;;;;;9.67;5.20;;;;;;;;;;5018936;28;20173;-84
2023/03/20 10:03:58;;;;;;;15.70;6.70;;;;;;;;;;5029562;28;20223;-84
2023/03/20 10:06:24;;;;;;;13.77;5.90;;;;;;;;;;5037668;28;20181;-84
2023/03/20 10:08:50;;;;;;;9.37;5.63;;;;;;;;;;5002441;28;20188;-84
2023/03/20 10:11:21;;;;;;;12.77;6.10;;;;;;;;;;5054376;28;20208;-84
2023/03/20 10:13:48;;;;;;;12.43;6.20;;;;;;;;;;5042615;28;20201;-77
2023/03/20 10:16:26;;;;;;;12.67;6.57;;;;;;;;;;5034974;28;20176;-77
2023/03/20 10:19:15;;;;;;;15.30;6.73;;;;;;;;;;5035319;28;20185;-77
2023/03/20 10:21:45;;;;;;;11.93;6.80;;;;;;;;;;5035597;28;20280;-77
2023/03/20 10:24:18;;;;;;;13.20;7.10;;;;;;;;;;5035050;28;20222;-77
2023/03/20 10:26:46;;;;;;;11.60;7.07;;;;;;;;;;5035935;28;20173;-78
2023/03/20 10:29:32;;;;;;;11.30;7.30;;;;;;;;;;5034955;28;20184;-82
2023/03/20 10:32:06;;;;;;;11.53;7.17;;;;;;;;;;5034586;28;20177;-84
2023/03/20 10:34:40;;;;;;;11.83;7.67;;;;;;;;;;5034690;28;20213;-84
2023/03/20 10:37:13;;;;;;;13.40;7.43;;;;;;;;;;5035161;28;20176;-84
2023/03/20 10:39:45;;;;;;;14.50;6.50;;;;;;;;;;5034724;28;20176;-84
2023/03/20 10:42:17;;;;;;;14.47;6.83;;;;;;;;;;5034818;28;20176;-84
2023/03/20 10:44:48;;;;;;;13.20;7.17;;;;;;;;;;5036416;28;20211;-84
2023/03/20 10:47:16;;;;;;;12.23;7.17;;;;;;;;;;5037712;28;20195;-81
2023/03/20 10:50:02;;;;;;;11.70;6.23;;;;;;;;;;5055475;28;20214;-81
2023/03/20 10:52:31;;;;;;;11.73;6.23;;;;;;;;;;5037544;28;20203;-81
2023/03/20 10:55:06;;;;;;;12.60;6.13;;;;;;;;;;5038104;28;20183;-81
2023/03/20 10:57:40;;;;;;;10.33;5.87;;;;;;;;;;5037850;28;20221;-81
2023/03/20 11:00:11;;;;;;;12.10;5.93;;;;;;;;;;5037573;28;20189;-82
2023/03/20 11:05:18;;;;;;;8.73;4.83;;;;;;;;;;5030662;28;20225;-78
2023/03/20 11:07:46;;;;;;;8.97;4.97;;;;;;;;;;5016534;28;20270;-78
2023/03/20 11:10:15;;;;;;;11.63;4.80;;;;;;;;;;5017349;28;20177;-77
2023/03/20 11:12:51;;;;;;;8.20;5.23;;;;;;;;;;5017059;28;20276;-77
2023/03/20 11:15:33;;;;;;;9.50;5.20;;;;;;;;;;5017329;28;20172;-78
2023/03/20 11:18:01;;;;;;;8.43;4.63;;;;;;;;;;5017431;28;20264;-77
2023/03/20 11:20:33;;;;;;;14.13;4.67;;;;;;;;;;5017539;28;20180;-84
2023/03/20 11:23:09;;;;;;;10.70;5.00;;;;;;;;;;5017435;28;20185;-84
2023/03/20 11:25:45;;;;;;;8.80;5.10;;;;;;;;;;5017335;28;20180;-84
2023/03/20 11:28:19;;;;;;;7.87;4.77;;;;;;;;;;5016887;28;20181;-84
2023/03/20 11:30:45;;;;;;;12.50;5.57;;;;;;;;;;5016797;28;20177;-84
2023/03/20 11:33:11;;;;;;;11.80;5.10;;;;;;;;;;5000621;28;20215;-84
2023/03/20 11:35:37;;;;;;;9.47;4.63;;;;;;;;;;5016991;28;20176;-83
2023/03/20 11:38:15;;;;;;;10.00;5.27;;;;;;;;;;5000650;28;20185;-78
2023/03/20 11:40:41;;;;;;;9.80;5.03;;;;;;;;;;5016907;28;20265;-78
2023/03/20 11:43:12;;;;;;;8.20;4.80;;;;;;;;;;5016893;28;20285;-78
2023/03/20 11:45:45;;;;;;;12.07;5.23;;;;;;;;;;5008413;28;20212;-77
2023/03/20 11:48:16;;;;;;;10.93;5.17;;;;;;;;;;5013644;28;20185;-77
2023/03/20 11:50:44;;;;;;;10.47;5.40;;;;;;;;;;5013349;28;20315;-77
2023/03/20 11:53:22;;;;;;;10.53;5.50;;;;;;;;;;5013377;28;20220;-77
2023/03/20 11:56:02;;;;;;;10.33;5.00;;;;;;;;;;5013491;28;20177;-77
2023/03/20 11:58:28;;;;;;;11.73;4.83;;;;;;;;;;5013209;28;20236;-77
2023/03/20 12:00:55;;;;;;;9.13;5.37;;;;;;;;;;5013125;28;20169;-77
2023/03/20 12:03:34;;;;;;;11.43;5.20;;;;;;;;;;5013368;28;20240;-77
2023/03/20 12:06:00;;;;;;;8.63;5.30;;;;;;;;;;5013345;28;20181;-77
2023/03/20 12:08:29;;;;;;;6.93;4.60;;;;;;;;;;5004388;28;20188;-77
2023/03/20 12:11:00;;;;;;;10.10;5.00;;;;;;;;;;4996954;28;20185;-77
2023/03/20 12:13:32;;;;;;;10.17;4.60;;;;;;;;;;4996821;28;20217;-77
2023/03/20 12:16:02;;;;;;;11.23;4.70;;;;;;;;;;4996569;28;20178;-77
2023/03/20 12:18:32;;;;;;;6.73;4.50;;;;;;;;;;4996559;28;20173;-77
2023/03/20 12:21:04;;;;;;;12.17;5.10;;;;;;;;;;4996464;28;20208;-77
2023/03/20 12:23:33;;;;;;;9.63;4.97;;;;;;;;;;4996735;28;20185;-77
2023/03/20 12:26:06;;;;;;;11.03;5.60;;;;;;;;;;4996839;28;20181;-77
2023/03/20 12:28:51;;;;;;;9.67;5.37;;;;;;;;;;4996497;28;20181;-78
2023/03/20 12:31:33;;;;;;;10.77;5.53;;;;;;;;;;4996511;28;20219;-78
2023/03/20 12:34:15;;;;;;;8.70;4.83;;;;;;;;;;4996452;28;20204;-78
2023/03/20 12:36:43;;;;;;;11.50;5.90;;;;;;;;;;5013952;28;20166;-78
2023/03/20 12:39:14;;;;;;;12.10;5.80;;;;;;;;;;4996236;28;20227;-78
2023/03/20 12:41:47;;;;;;;15.00;7.00;;;;;;;;;;4995448;28;20419;-77
2023/03/20 12:44:32;;;;;;;9.60;5.50;;;;;;;;;;4996868;28;20212;-78
2023/03/20 12:46:57;;;;;;;12.83;6.03;;;;;;;;;;5013854;28;20223;-78
2023/03/20 12:49:42;;;;;;;14.50;6.17;;;;;;;;;;4996316;28;20189;-77
2023/03/20 12:52:35;;;;;;;12.43;6.50;;;;;;;;;;4996170;28;20210;-78
2023/03/20 12:55:04;;;;;;;12.60;7.27;;;;;;;;;;5010873;28;20190;-78
2023/03/20 12:57:35;;;;;;;16.10;7.57;;;;;;;;;;4996264;28;20182;-78
2023/03/20 13:00:09;;;;;;;16.23;7.83;;;;;;;;;;4996496;28;20177;-84
2023/03/20 13:03:01;;;;;;;12.87;7.50;;;;;;;;;;5013661;28;20169;-84
2023/03/20 13:05:30;;;;;;;18.63;7.50;;;;;;;;;;4997616;28;20201;-83
2023/03/20 13:08:21;;;;;;;15.43;8.38;;;;;;;;;;4995664;28;20519;-83
2023/03/20 13:11:06;;;;;;;17.57;8.20;;;;;;;;;;4996195;28;20219;-83
2023/03/20 13:13:50;;;;;;;14.30;8.27;;;;;;;;;;5010211;28;20204;-84
2023/03/20 13:16:25;;;;;;;15.10;8.13;;;;;;;;;;5012325;28;20191;-77
2023/03/20 13:19:05;;;;;;;21.33;7.80;;;;;;;;;;5010705;28;20241;-76
2023/03/20 13:21:33;;;;;;;17.23;7.73;;;;;;;;;;5011634;28;20230;-77
2023/03/20 13:24:05;;;;;;;14.60;8.33;;;;;;;;;;5015343;28;20192;-77
2023/03/20 13:26:51;;;;;;;16.90;8.63;;;;;;;;;;5023616;28;20185;-76
2023/03/20 13:29:21;;;;;;;17.07;8.20;;;;;;;;;;5015018;28;20328;-77
2023/03/20 13:32:00;;;;;;;14.83;8.40;;;;;;;;;;5026240;28;20185;-77
2023/03/20 13:34:35;;;;;;;15.80;8.00;;;;;;;;;;5003214;28;20310;-77
2023/03/20 13:37:08;;;;;;;17.23;8.20;;;;;;;;;;5026671;28;20169;-77
2023/03/20 13:39:40;;;;;;;17.30;8.50;;;;;;;;;;5035331;28;20184;-77
2023/03/20 13:42:09;;;;;;;21.47;8.77;;;;;;;;;;5015501;28;20168;-77
2023/03/20 13:44:35;;;;;;;17.43;8.50;;;;;;;;;;5023751;28;20178;-77
2023/03/20 13:47:03;;;;;;;17.97;9.20;;;;;;;;;;4995681;28;20188;-77
2023/03/20 13:49:36;;;;;;;18.70;8.40;;;;;;;;;;5015634;28;20243;-77
2023/03/20 13:52:12;;;;;;;23.77;8.70;;;;;;;;;;5014873;28;20184;-76
2023/03/20 13:54:57;;;;;;;18.77;8.53;;;;;;;;;;5013314;28;20239;-77
2023/03/20 13:57:55;;;;;;;20.10;9.37;;;;;;;;;;5014263;28;20173;-76
2023/03/20 14:00:24;;;;;;;18.97;8.93;;;;;;;;;;4967902;28;20185;-77
2023/03/20 14:02:54;;;;;;;19.90;8.90;;;;;;;;;;5015122;28;20390;-77
2023/03/20 14:05:21;;;;;;;18.50;9.37;;;;;;;;;;5017086;28;20256;-77
2023/03/20 14:07:49;;;;;;;19.53;9.67;;;;;;;;;;5031961;28;20249;-83
2023/03/20 14:10:21;;;;;;;22.90;9.97;;;;;;;;;;5029736;28;20188;-83
2023/03/20 14:12:56;;;;;;;16.83;9.30;;;;;;;;;;5007569;28;20319;-83
2023/03/20 14:15:26;;;;;;;18.60;9.67;;;;;;;;;;5029996;28;20177;-83
2023/03/20 14:17:52;;;;;;;18.33;9.73;;;;;;;;;;5018230;28;20927;-83
2023/03/20 14:20:27;;;;;;;16.57;9.83;;;;;;;;;;4998253;28;20191;-83
2023/03/20 14:22:54;;;;;;;24.37;10.77;;;;;;;;;;5018156;28;20180;-78
2023/03/20 14:25:21;;;;;;;17.40;9.50;;;;;;;;;;4995730;28;20253;-77
2023/03/20 14:27:55;;;;;;;22.90;10.37;;;;;;;;;;4998439;28;20185;-78
2023/03/20 14:30:30;;;;;;;20.07;9.90;;;;;;;;;;4998445;28;20264;-78
2023/03/20 14:33:04;;;;;;;22.10;10.27;;;;;;;;;;4998172;28;20185;-77
2023/03/20 14:35:35;;;;;;;20.58;9.65;;;;;;;;;;5013568;28;20314;-77
2023/03/20 14:38:07;;;;;;;17.57;9.87;;;;;;;;;;5017500;28;20275;-77
2023/03/20 14:40:37;;;;;;;19.70;11.30;;;;;;;;;;5014799;28;20413;-79